sensor_id;sensor_type;location;lat;lon;timestamp;temperature;humidity
26224;DHT22;14820;48.682;8.890;2023-02-10T00:01:32;-3.40;99.90
26224;DHT22;14820;48.682;8.890;2023-02-10T00:03:57;-3.50;99.90
26224;DHT22;14820;48.682;8.890;2023-02-10T00:06:25;-3.70;99.90
26224;DHT22;14820;48.682;8.890;2023-02-10T00:08:54;-3.70;99.90
26224;DHT22;14820;48.682;8.890;2023-02-10T00:11:20;-3.70;99.90
26224;DHT22;14820;48.682;8.890;2023-02-10T00:14:06;-3.70;99.90
26224;DHT22;14820;48.682;8.890;2023-02-10T00:16:31;-3.70;99.90
26224;DHT22;14820;48.682;8.890;2023-02-10T00:18:57;-3.70;99.90
26224;DHT22;14820;48.682;8.890;2023-02-10T00:21:22;-3.80;99.90
26224;DHT22;14820;48.682;8.890;2023-02-10T00:23:48;-3.70;99.90
26224;DHT22;14820;48.682;8.890;2023-02-10T00:26:13;-3.80;99.90
26224;DHT22;14820;48.682;8.890;2023-02-10T00:28:40;-3.80;99.90
26224;DHT22;14820;48.682;8.890;2023-02-10T00:31:07;-3.80;99.90
26224;DHT22;14820;48.682;8.890;2023-02-10T00:33:33;-3.90;99.90
26224;DHT22;14820;48.682;8.890;2023-02-10T00:36:01;-3.90;99.90
26224;DHT22;14820;48.682;8.890;2023-02-10T00:38:27;-3.90;99.90
26224;DHT22;14820;48.682;8.890;2023-02-10T00:40:53;-3.90;99.90
26224;DHT22;14820;48.682;8.890;2023-02-10T00:43:18;-4.00;99.90
26224;DHT22;14820;48.682;8.890;2023-02-10T00:45:44;-4.10;99.90
26224;DHT22;14820;48.682;8.890;2023-02-10T00:48:10;-4.10;99.90
26224;DHT22;14820;48.682;8.890;2023-02-10T00:50:36;-4.20;99.90
26224;DHT22;14820;48.682;8.890;2023-02-10T00:53:01;-4.20;99.90
26224;DHT22;14820;48.682;8.890;2023-02-10T00:55:27;-4.20;99.90
26224;DHT22;14820;48.682;8.890;2023-02-10T00:57:53;-4.20;99.90
26224;DHT22;14820;48.682;8.890;2023-02-10T01:00:18;-4.30;99.90
26224;DHT22;14820;48.682;8.890;2023-02-10T01:02:44;-4.20;99.90
26224;DHT22;14820;48.682;8.890;2023-02-10T01:05:10;-4.30;99.90
26224;DHT22;14820;48.682;8.890;2023-02-10T01:07:35;-4.30;99.90
26224;DHT22;14820;48.682;8.890;2023-02-10T01:10:01;-4.30;99.90
26224;DHT22;14820;48.682;8.890;2023-02-10T01:12:26;-4.20;99.90
26224;DHT22;14820;48.682;8.890;2023-02-10T01:14:52;-4.20;99.90
26224;DHT22;14820;48.682;8.890;2023-02-10T01:17:18;-4.30;99.90
26224;DHT22;14820;48.682;8.890;2023-02-10T01:19:43;-4.30;99.90
26224;DHT22;14820;48.682;8.890;2023-02-10T01:22:09;-4.30;99.90
26224;DHT22;14820;48.682;8.890;2023-02-10T01:24:35;-4.30;99.90
26224;DHT22;14820;48.682;8.890;2023-02-10T01:27:00;-4.20;99.90
26224;DHT22;14820;48.682;8.890;2023-02-10T01:29:26;-4.20;99.90
26224;DHT22;14820;48.682;8.890;2023-02-10T01:31:51;-4.20;99.90
26224;DHT22;14820;48.682;8.890;2023-02-10T01:34:17;-4.20;99.90
26224;DHT22;14820;48.682;8.890;2023-02-10T01:36:43;-4.10;99.90
26224;DHT22;14820;48.682;8.890;2023-02-10T01:39:08;-4.20;99.90
26224;DHT22;14820;48.682;8.890;2023-02-10T01:41:34;-4.30;99.90
26224;DHT22;14820;48.682;8.890;2023-02-10T01:46:51;-4.40;99.90
26224;DHT22;14820;48.682;8.890;2023-02-10T01:49:29;-4.50;99.90
26224;DHT22;14820;48.682;8.890;2023-02-10T01:52:02;-4.60;99.90
26224;DHT22;14820;48.682;8.890;2023-02-10T01:54:34;-4.60;99.90
26224;DHT22;14820;48.682;8.890;2023-02-10T01:57:01;-4.60;99.90
26224;DHT22;14820;48.682;8.890;2023-02-10T01:59:30;-4.40;99.90
26224;DHT22;14820;48.682;8.890;2023-02-10T02:01:58;-4.50;99.90
26224;DHT22;14820;48.682;8.890;2023-02-10T02:04:26;-4.60;99.90
26224;DHT22;14820;48.682;8.890;2023-02-10T02:06:52;-4.70;99.90
26224;DHT22;14820;48.682;8.890;2023-02-10T02:09:18;-4.70;99.90
26224;DHT22;14820;48.682;8.890;2023-02-10T02:14:54;-4.60;99.90
26224;DHT22;14820;48.682;8.890;2023-02-10T02:20:49;-4.70;99.90
26224;DHT22;14820;48.682;8.890;2023-02-10T02:29:18;-4.70;99.90
26224;DHT22;14820;48.682;8.890;2023-02-10T02:31:44;-4.80;99.90
26224;DHT22;14820;48.682;8.890;2023-02-10T02:34:24;-4.80;99.90
26224;DHT22;14820;48.682;8.890;2023-02-10T02:36:57;-4.70;99.90
26224;DHT22;14820;48.682;8.890;2023-02-10T02:39:24;-4.70;99.90
26224;DHT22;14820;48.682;8.890;2023-02-10T02:44:32;-4.80;99.90
26224;DHT22;14820;48.682;8.890;2023-02-10T02:58:04;-4.70;99.90
26224;DHT22;14820;48.682;8.890;2023-02-10T03:00:35;-4.80;99.90
26224;DHT22;14820;48.682;8.890;2023-02-10T03:03:02;-4.90;99.90
26224;DHT22;14820;48.682;8.890;2023-02-10T03:05:30;-4.90;99.90
26224;DHT22;14820;48.682;8.890;2023-02-10T03:07:56;-5.00;99.90
26224;DHT22;14820;48.682;8.890;2023-02-10T03:10:22;-5.00;99.90
26224;DHT22;14820;48.682;8.890;2023-02-10T03:12:48;-5.10;99.90
26224;DHT22;14820;48.682;8.890;2023-02-10T03:15:13;-5.10;99.90
26224;DHT22;14820;48.682;8.890;2023-02-10T03:17:40;-5.00;99.90
26224;DHT22;14820;48.682;8.890;2023-02-10T03:20:06;-5.00;99.90
26224;DHT22;14820;48.682;8.890;2023-02-10T03:22:32;-5.00;99.90
26224;DHT22;14820;48.682;8.890;2023-02-10T03:24:57;-5.00;99.90
26224;DHT22;14820;48.682;8.890;2023-02-10T03:27:23;-5.00;99.90
26224;DHT22;14820;48.682;8.890;2023-02-10T03:29:49;-5.00;99.90
26224;DHT22;14820;48.682;8.890;2023-02-10T03:32:16;-5.00;99.90
26224;DHT22;14820;48.682;8.890;2023-02-10T03:34:41;-5.00;99.90
26224;DHT22;14820;48.682;8.890;2023-02-10T03:37:07;-4.90;99.90
26224;DHT22;14820;48.682;8.890;2023-02-10T03:39:33;-4.90;99.90
26224;DHT22;14820;48.682;8.890;2023-02-10T03:41:59;-4.90;99.90
26224;DHT22;14820;48.682;8.890;2023-02-10T03:44:25;-5.00;99.90
26224;DHT22;14820;48.682;8.890;2023-02-10T03:46:50;-5.00;99.90
26224;DHT22;14820;48.682;8.890;2023-02-10T03:49:16;-5.10;99.90
26224;DHT22;14820;48.682;8.890;2023-02-10T03:51:41;-5.10;99.90
26224;DHT22;14820;48.682;8.890;2023-02-10T03:54:07;-5.20;99.90
26224;DHT22;14820;48.682;8.890;2023-02-10T03:56:33;-5.20;99.90
26224;DHT22;14820;48.682;8.890;2023-02-10T03:59:03;-5.20;99.90
26224;DHT22;14820;48.682;8.890;2023-02-10T04:01:29;-5.20;99.90
26224;DHT22;14820;48.682;8.890;2023-02-10T04:03:55;-5.20;99.90
26224;DHT22;14820;48.682;8.890;2023-02-10T04:06:20;-5.20;99.90
26224;DHT22;14820;48.682;8.890;2023-02-10T04:08:48;-5.20;99.90
26224;DHT22;14820;48.682;8.890;2023-02-10T04:11:14;-5.20;99.90
26224;DHT22;14820;48.682;8.890;2023-02-10T04:13:48;-5.30;99.90
26224;DHT22;14820;48.682;8.890;2023-02-10T04:16:22;-5.30;99.90
26224;DHT22;14820;48.682;8.890;2023-02-10T04:18:53;-5.30;99.90
26224;DHT22;14820;48.682;8.890;2023-02-10T04:21:19;-5.40;99.90
26224;DHT22;14820;48.682;8.890;2023-02-10T04:23:44;-5.40;99.90
26224;DHT22;14820;48.682;8.890;2023-02-10T04:26:10;-5.40;99.90
26224;DHT22;14820;48.682;8.890;2023-02-10T04:28:36;-5.40;99.90
26224;DHT22;14820;48.682;8.890;2023-02-10T04:31:02;-5.40;99.90
26224;DHT22;14820;48.682;8.890;2023-02-10T04:33:28;-5.30;99.90
26224;DHT22;14820;48.682;8.890;2023-02-10T04:35:55;-5.30;99.90
26224;DHT22;14820;48.682;8.890;2023-02-10T04:38:21;-5.40;99.90
26224;DHT22;14820;48.682;8.890;2023-02-10T04:40:47;-5.40;99.90
26224;DHT22;14820;48.682;8.890;2023-02-10T04:43:13;-5.50;99.90
26224;DHT22;14820;48.682;8.890;2023-02-10T04:45:39;-5.40;99.90
26224;DHT22;14820;48.682;8.890;2023-02-10T04:48:05;-5.40;99.90
26224;DHT22;14820;48.682;8.890;2023-02-10T04:50:32;-5.40;99.90
26224;DHT22;14820;48.682;8.890;2023-02-10T04:52:58;-5.40;99.90
26224;DHT22;14820;48.682;8.890;2023-02-10T04:55:24;-5.40;99.90
26224;DHT22;14820;48.682;8.890;2023-02-10T04:57:49;-5.40;99.90
26224;DHT22;14820;48.682;8.890;2023-02-10T05:00:15;-5.40;99.90
26224;DHT22;14820;48.682;8.890;2023-02-10T05:02:41;-5.50;99.90
26224;DHT22;14820;48.682;8.890;2023-02-10T05:05:08;-5.50;99.90
26224;DHT22;14820;48.682;8.890;2023-02-10T05:07:34;-5.60;99.90
26224;DHT22;14820;48.682;8.890;2023-02-10T05:10:00;-5.60;99.90
26224;DHT22;14820;48.682;8.890;2023-02-10T05:12:25;-5.50;99.90
26224;DHT22;14820;48.682;8.890;2023-02-10T05:14:51;-5.50;99.90
26224;DHT22;14820;48.682;8.890;2023-02-10T05:17:17;-5.50;99.90
26224;DHT22;14820;48.682;8.890;2023-02-10T05:19:42;-5.50;99.90
26224;DHT22;14820;48.682;8.890;2023-02-10T05:22:08;-5.40;99.90
26224;DHT22;14820;48.682;8.890;2023-02-10T05:24:33;-5.50;99.90
26224;DHT22;14820;48.682;8.890;2023-02-10T05:26:59;-5.40;99.90
26224;DHT22;14820;48.682;8.890;2023-02-10T05:29:25;-5.50;99.90
26224;DHT22;14820;48.682;8.890;2023-02-10T05:31:50;-5.50;99.90
26224;DHT22;14820;48.682;8.890;2023-02-10T05:34:16;-5.50;99.90
26224;DHT22;14820;48.682;8.890;2023-02-10T05:36:42;-5.60;99.90
26224;DHT22;14820;48.682;8.890;2023-02-10T05:39:10;-5.60;99.90
26224;DHT22;14820;48.682;8.890;2023-02-10T05:41:55;-5.60;99.90
26224;DHT22;14820;48.682;8.890;2023-02-10T05:44:22;-5.70;99.90
26224;DHT22;14820;48.682;8.890;2023-02-10T05:46:49;-5.70;99.90
26224;DHT22;14820;48.682;8.890;2023-02-10T05:49:14;-5.70;99.90
26224;DHT22;14820;48.682;8.890;2023-02-10T05:51:40;-5.70;99.90
26224;DHT22;14820;48.682;8.890;2023-02-10T05:54:06;-5.70;99.90
26224;DHT22;14820;48.682;8.890;2023-02-10T05:56:32;-5.60;99.90
26224;DHT22;14820;48.682;8.890;2023-02-10T05:58:57;-5.70;99.90
26224;DHT22;14820;48.682;8.890;2023-02-10T06:01:23;-5.70;99.90
26224;DHT22;14820;48.682;8.890;2023-02-10T06:03:49;-5.70;99.90
26224;DHT22;14820;48.682;8.890;2023-02-10T06:06:15;-5.70;99.90
26224;DHT22;14820;48.682;8.890;2023-02-10T06:08:41;-5.70;99.90
26224;DHT22;14820;48.682;8.890;2023-02-10T06:11:07;-5.70;99.90
26224;DHT22;14820;48.682;8.890;2023-02-10T06:13:32;-5.70;99.90
26224;DHT22;14820;48.682;8.890;2023-02-10T06:15:58;-5.80;99.90
26224;DHT22;14820;48.682;8.890;2023-02-10T06:18:24;-5.70;99.90
26224;DHT22;14820;48.682;8.890;2023-02-10T06:20:49;-5.70;99.90
26224;DHT22;14820;48.682;8.890;2023-02-10T06:23:17;-5.70;99.90
26224;DHT22;14820;48.682;8.890;2023-02-10T06:25:43;-5.70;99.90
26224;DHT22;14820;48.682;8.890;2023-02-10T06:28:08;-5.70;99.90
26224;DHT22;14820;48.682;8.890;2023-02-10T06:30:34;-5.60;99.90
26224;DHT22;14820;48.682;8.890;2023-02-10T06:33:00;-5.70;99.90
26224;DHT22;14820;48.682;8.890;2023-02-10T06:35:25;-5.70;99.90
26224;DHT22;14820;48.682;8.890;2023-02-10T06:37:51;-5.80;99.90
26224;DHT22;14820;48.682;8.890;2023-02-10T06:40:17;-5.80;99.90
26224;DHT22;14820;48.682;8.890;2023-02-10T06:42:42;-5.70;99.90
26224;DHT22;14820;48.682;8.890;2023-02-10T06:45:08;-5.70;99.90
26224;DHT22;14820;48.682;8.890;2023-02-10T06:47:35;-5.70;99.90
26224;DHT22;14820;48.682;8.890;2023-02-10T06:50:01;-5.60;99.90
26224;DHT22;14820;48.682;8.890;2023-02-10T06:52:26;-5.60;99.90
26224;DHT22;14820;48.682;8.890;2023-02-10T06:54:52;-5.60;99.90
26224;DHT22;14820;48.682;8.890;2023-02-10T06:57:18;-5.60;99.90
26224;DHT22;14820;48.682;8.890;2023-02-10T06:59:44;-5.60;99.90
26224;DHT22;14820;48.682;8.890;2023-02-10T07:02:11;-5.50;99.90
26224;DHT22;14820;48.682;8.890;2023-02-10T07:04:37;-5.50;99.90
26224;DHT22;14820;48.682;8.890;2023-02-10T07:07:03;-5.50;99.90
26224;DHT22;14820;48.682;8.890;2023-02-10T07:09:29;-5.50;99.90
26224;DHT22;14820;48.682;8.890;2023-02-10T07:11:54;-5.50;99.90
26224;DHT22;14820;48.682;8.890;2023-02-10T07:14:20;-5.50;99.90
26224;DHT22;14820;48.682;8.890;2023-02-10T07:16:46;-5.50;99.90
26224;DHT22;14820;48.682;8.890;2023-02-10T07:19:13;-5.50;99.90
26224;DHT22;14820;48.682;8.890;2023-02-10T07:21:38;-5.40;99.90
26224;DHT22;14820;48.682;8.890;2023-02-10T07:24:04;-5.30;99.90
26224;DHT22;14820;48.682;8.890;2023-02-10T07:26:30;-5.20;99.90
26224;DHT22;14820;48.682;8.890;2023-02-10T07:28:56;-5.10;99.90
26224;DHT22;14820;48.682;8.890;2023-02-10T07:31:21;-5.10;99.90
26224;DHT22;14820;48.682;8.890;2023-02-10T07:33:47;-5.10;99.90
26224;DHT22;14820;48.682;8.890;2023-02-10T07:36:13;-5.10;99.90
26224;DHT22;14820;48.682;8.890;2023-02-10T07:38:38;-5.10;99.90
26224;DHT22;14820;48.682;8.890;2023-02-10T07:41:05;-5.00;99.90
26224;DHT22;14820;48.682;8.890;2023-02-10T07:43:31;-4.90;99.90
26224;DHT22;14820;48.682;8.890;2023-02-10T07:45:57;-4.80;99.90
26224;DHT22;14820;48.682;8.890;2023-02-10T07:48:22;-4.70;99.90
26224;DHT22;14820;48.682;8.890;2023-02-10T07:50:48;-4.70;99.90
26224;DHT22;14820;48.682;8.890;2023-02-10T07:53:15;-4.70;99.90
26224;DHT22;14820;48.682;8.890;2023-02-10T07:55:41;-4.60;99.90
26224;DHT22;14820;48.682;8.890;2023-02-10T07:58:06;-4.50;99.90
26224;DHT22;14820;48.682;8.890;2023-02-10T08:00:33;-4.40;99.90
26224;DHT22;14820;48.682;8.890;2023-02-10T08:02:59;-4.30;99.90
26224;DHT22;14820;48.682;8.890;2023-02-10T08:05:24;-4.30;99.90
26224;DHT22;14820;48.682;8.890;2023-02-10T08:07:51;-4.20;99.90
26224;DHT22;14820;48.682;8.890;2023-02-10T08:10:18;-4.10;99.90
26224;DHT22;14820;48.682;8.890;2023-02-10T08:12:44;-4.10;99.90
26224;DHT22;14820;48.682;8.890;2023-02-10T08:15:11;-4.00;99.90
26224;DHT22;14820;48.682;8.890;2023-02-10T08:17:37;-4.00;99.90
26224;DHT22;14820;48.682;8.890;2023-02-10T08:20:05;-3.90;99.90
26224;DHT22;14820;48.682;8.890;2023-02-10T08:22:31;-3.90;99.90
26224;DHT22;14820;48.682;8.890;2023-02-10T08:24:56;-3.90;99.90
26224;DHT22;14820;48.682;8.890;2023-02-10T08:27:22;-3.90;99.90
26224;DHT22;14820;48.682;8.890;2023-02-10T08:29:48;-3.80;99.90
26224;DHT22;14820;48.682;8.890;2023-02-10T08:32:13;-3.70;99.90
26224;DHT22;14820;48.682;8.890;2023-02-10T08:34:47;-3.60;99.90
26224;DHT22;14820;48.682;8.890;2023-02-10T08:37:13;-3.50;99.90
26224;DHT22;14820;48.682;8.890;2023-02-10T08:39:39;-3.40;99.90
26224;DHT22;14820;48.682;8.890;2023-02-10T08:42:05;-3.40;99.90
26224;DHT22;14820;48.682;8.890;2023-02-10T08:44:31;-3.30;99.90
26224;DHT22;14820;48.682;8.890;2023-02-10T08:46:56;-3.20;99.90
26224;DHT22;14820;48.682;8.890;2023-02-10T08:49:22;-3.20;99.90
26224;DHT22;14820;48.682;8.890;2023-02-10T08:51:53;-3.10;99.90
26224;DHT22;14820;48.682;8.890;2023-02-10T08:54:19;-3.00;99.90
26224;DHT22;14820;48.682;8.890;2023-02-10T08:56:45;-2.90;99.90
26224;DHT22;14820;48.682;8.890;2023-02-10T08:59:11;-2.80;99.90
26224;DHT22;14820;48.682;8.890;2023-02-10T09:01:37;-2.70;99.90
26224;DHT22;14820;48.682;8.890;2023-02-10T09:04:03;-2.60;99.90
26224;DHT22;14820;48.682;8.890;2023-02-10T09:06:35;-2.50;99.90
26224;DHT22;14820;48.682;8.890;2023-02-10T09:09:15;-2.40;99.90
26224;DHT22;14820;48.682;8.890;2023-02-10T09:11:41;-2.30;99.90
26224;DHT22;14820;48.682;8.890;2023-02-10T09:14:07;-2.20;99.90
26224;DHT22;14820;48.682;8.890;2023-02-10T09:16:34;-2.10;99.90
26224;DHT22;14820;48.682;8.890;2023-02-10T09:19:00;-2.00;99.90
26224;DHT22;14820;48.682;8.890;2023-02-10T09:21:26;-1.80;99.90
26224;DHT22;14820;48.682;8.890;2023-02-10T09:23:52;-1.70;99.90
26224;DHT22;14820;48.682;8.890;2023-02-10T09:26:18;-1.60;99.90
26224;DHT22;14820;48.682;8.890;2023-02-10T09:28:44;-1.50;99.90
26224;DHT22;14820;48.682;8.890;2023-02-10T09:31:12;-1.40;99.90
26224;DHT22;14820;48.682;8.890;2023-02-10T09:33:38;-1.30;99.90
26224;DHT22;14820;48.682;8.890;2023-02-10T09:36:05;-1.20;99.90
26224;DHT22;14820;48.682;8.890;2023-02-10T09:38:32;-1.00;99.90
26224;DHT22;14820;48.682;8.890;2023-02-10T09:52:36;-0.20;99.90
26224;DHT22;14820;48.682;8.890;2023-02-10T09:55:16;-0.10;99.90
26224;DHT22;14820;48.682;8.890;2023-02-10T09:57:45;0.10;99.90
26224;DHT22;14820;48.682;8.890;2023-02-10T10:00:34;0.20;99.90
26224;DHT22;14820;48.682;8.890;2023-02-10T10:03:05;0.50;99.90
26224;DHT22;14820;48.682;8.890;2023-02-10T10:08:32;0.80;99.90
26224;DHT22;14820;48.682;8.890;2023-02-10T10:13:29;1.10;99.90
26224;DHT22;14820;48.682;8.890;2023-02-10T10:21:24;1.70;99.90
26224;DHT22;14820;48.682;8.890;2023-02-10T10:26:47;2.00;99.90
26224;DHT22;14820;48.682;8.890;2023-02-10T10:32:13;2.60;99.90
26224;DHT22;14820;48.682;8.890;2023-02-10T10:34:42;2.60;99.90
26224;DHT22;14820;48.682;8.890;2023-02-10T10:37:18;2.90;99.90
26224;DHT22;14820;48.682;8.890;2023-02-10T10:39:46;3.00;99.90
26224;DHT22;14820;48.682;8.890;2023-02-10T10:44:47;3.30;99.90
26224;DHT22;14820;48.682;8.890;2023-02-10T10:47:28;3.40;99.90
26224;DHT22;14820;48.682;8.890;2023-02-10T10:49:55;3.50;99.90
26224;DHT22;14820;48.682;8.890;2023-02-10T10:52:27;3.60;99.90
26224;DHT22;14820;48.682;8.890;2023-02-10T10:54:53;3.70;99.90
26224;DHT22;14820;48.682;8.890;2023-02-10T10:57:19;3.80;99.90
26224;DHT22;14820;48.682;8.890;2023-02-10T11:02:31;4.10;99.90
26224;DHT22;14820;48.682;8.890;2023-02-10T11:05:03;4.20;99.90
26224;DHT22;14820;48.682;8.890;2023-02-10T11:07:32;4.30;99.90
26224;DHT22;14820;48.682;8.890;2023-02-10T11:09:58;4.40;99.90
26224;DHT22;14820;48.682;8.890;2023-02-10T11:12:32;4.40;99.90
26224;DHT22;14820;48.682;8.890;2023-02-10T11:15:00;4.50;99.90
26224;DHT22;14820;48.682;8.890;2023-02-10T11:17:30;4.50;99.90
26224;DHT22;14820;48.682;8.890;2023-02-10T11:22:31;4.70;99.90
26224;DHT22;14820;48.682;8.890;2023-02-10T11:25:00;4.80;99.90
26224;DHT22;14820;48.682;8.890;2023-02-10T11:27:26;5.00;99.90
26224;DHT22;14820;48.682;8.890;2023-02-10T11:29:55;4.90;99.90
26224;DHT22;14820;48.682;8.890;2023-02-10T11:32:28;5.00;99.90
26224;DHT22;14820;48.682;8.890;2023-02-10T11:34:57;5.10;99.90
26224;DHT22;14820;48.682;8.890;2023-02-10T11:37:28;5.30;99.90
26224;DHT22;14820;48.682;8.890;2023-02-10T11:47:38;5.80;99.90
26224;DHT22;14820;48.682;8.890;2023-02-10T11:50:16;5.70;99.90
26224;DHT22;14820;48.682;8.890;2023-02-10T11:52:43;5.60;99.90
26224;DHT22;14820;48.682;8.890;2023-02-10T11:55:13;5.60;99.90
26224;DHT22;14820;48.682;8.890;2023-02-10T12:00:45;5.80;99.90
26224;DHT22;14820;48.682;8.890;2023-02-10T12:11:39;6.20;99.90
26224;DHT22;14820;48.682;8.890;2023-02-10T12:16:51;6.30;99.90
26224;DHT22;14820;48.682;8.890;2023-02-10T12:25:06;6.70;99.90
26224;DHT22;14820;48.682;8.890;2023-02-10T12:38:48;7.00;99.90
26224;DHT22;14820;48.682;8.890;2023-02-10T12:44:53;7.10;99.90
26224;DHT22;14820;48.682;8.890;2023-02-10T12:50:52;7.30;99.90
26224;DHT22;14820;48.682;8.890;2023-02-10T12:53:24;7.40;98.90
26224;DHT22;14820;48.682;8.890;2023-02-10T12:58:36;7.30;99.20
26224;DHT22;14820;48.682;8.890;2023-02-10T13:01:31;7.30;99.00
26224;DHT22;14820;48.682;8.890;2023-02-10T13:06:59;7.40;98.40
26224;DHT22;14820;48.682;8.890;2023-02-10T13:09:49;7.40;97.70
26224;DHT22;14820;48.682;8.890;2023-02-10T13:12:19;7.30;97.70
26224;DHT22;14820;48.682;8.890;2023-02-10T13:14:49;7.30;99.10
26224;DHT22;14820;48.682;8.890;2023-02-10T13:17:16;7.30;99.90
26224;DHT22;14820;48.682;8.890;2023-02-10T13:22:53;7.20;98.60
26224;DHT22;14820;48.682;8.890;2023-02-10T13:28:42;7.40;99.90
26224;DHT22;14820;48.682;8.890;2023-02-10T13:34:00;7.60;99.90
26224;DHT22;14820;48.682;8.890;2023-02-10T13:36:33;7.60;99.80
26224;DHT22;14820;48.682;8.890;2023-02-10T13:39:00;7.60;99.90
26224;DHT22;14820;48.682;8.890;2023-02-10T13:41:34;7.50;98.60
26224;DHT22;14820;48.682;8.890;2023-02-10T13:44:24;7.50;98.60
26224;DHT22;14820;48.682;8.890;2023-02-10T13:49:47;7.60;99.30
26224;DHT22;14820;48.682;8.890;2023-02-10T13:52:25;7.50;98.20
26224;DHT22;14820;48.682;8.890;2023-02-10T13:54:59;7.50;98.30
26224;DHT22;14820;48.682;8.890;2023-02-10T13:57:29;7.50;97.90
26224;DHT22;14820;48.682;8.890;2023-02-10T14:00:13;7.50;97.40
26224;DHT22;14820;48.682;8.890;2023-02-10T14:02:38;7.50;97.30
26224;DHT22;14820;48.682;8.890;2023-02-10T14:05:22;7.50;97.60
26224;DHT22;14820;48.682;8.890;2023-02-10T14:07:48;7.50;97.20
26224;DHT22;14820;48.682;8.890;2023-02-10T14:13:02;7.60;97.70
26224;DHT22;14820;48.682;8.890;2023-02-10T14:15:34;7.60;97.50
26224;DHT22;14820;48.682;8.890;2023-02-10T14:18:22;7.70;97.20
26224;DHT22;14820;48.682;8.890;2023-02-10T14:20:57;7.70;97.30
26224;DHT22;14820;48.682;8.890;2023-02-10T14:23:25;7.70;96.00
26224;DHT22;14820;48.682;8.890;2023-02-10T14:26:00;7.70;95.90
26224;DHT22;14820;48.682;8.890;2023-02-10T14:28:34;7.60;96.90
26224;DHT22;14820;48.682;8.890;2023-02-10T14:31:05;7.70;97.10
26224;DHT22;14820;48.682;8.890;2023-02-10T14:33:35;7.80;97.20
26224;DHT22;14820;48.682;8.890;2023-02-10T14:36:05;8.00;99.90
26224;DHT22;14820;48.682;8.890;2023-02-10T14:38:33;8.00;99.90
26224;DHT22;14820;48.682;8.890;2023-02-10T14:41:00;8.00;99.90
26224;DHT22;14820;48.682;8.890;2023-02-10T14:43:34;8.00;99.90
26224;DHT22;14820;48.682;8.890;2023-02-10T14:46:02;8.00;96.90
26224;DHT22;14820;48.682;8.890;2023-02-10T14:48:28;8.00;97.50
26224;DHT22;14820;48.682;8.890;2023-02-10T14:51:04;8.10;97.00
26224;DHT22;14820;48.682;8.890;2023-02-10T14:53:33;8.10;97.40
26224;DHT22;14820;48.682;8.890;2023-02-10T14:56:00;8.20;97.30
26224;DHT22;14820;48.682;8.890;2023-02-10T14:58:26;8.20;97.10
26224;DHT22;14820;48.682;8.890;2023-02-10T15:01:02;8.30;97.10
26224;DHT22;14820;48.682;8.890;2023-02-10T15:03:28;8.10;97.00
26224;DHT22;14820;48.682;8.890;2023-02-10T15:05:56;8.20;96.70
26224;DHT22;14820;48.682;8.890;2023-02-10T15:08:50;8.20;97.20
26224;DHT22;14820;48.682;8.890;2023-02-10T15:11:21;8.20;97.60
26224;DHT22;14820;48.682;8.890;2023-02-10T15:14:13;8.10;96.00
26224;DHT22;14820;48.682;8.890;2023-02-10T15:16:42;8.00;96.10
26224;DHT22;14820;48.682;8.890;2023-02-10T15:19:16;7.90;97.10
26224;DHT22;14820;48.682;8.890;2023-02-10T15:21:43;7.80;97.20
26224;DHT22;14820;48.682;8.890;2023-02-10T15:24:21;7.90;97.40
26224;DHT22;14820;48.682;8.890;2023-02-10T15:26:46;7.80;97.50
26224;DHT22;14820;48.682;8.890;2023-02-10T15:29:15;7.70;97.80
26224;DHT22;14820;48.682;8.890;2023-02-10T15:31:41;7.60;98.40
26224;DHT22;14820;48.682;8.890;2023-02-10T15:34:30;7.50;98.00
26224;DHT22;14820;48.682;8.890;2023-02-10T15:37:04;7.40;98.20
26224;DHT22;14820;48.682;8.890;2023-02-10T15:39:33;7.20;97.60
26224;DHT22;14820;48.682;8.890;2023-02-10T15:44:30;6.90;98.00
26224;DHT22;14820;48.682;8.890;2023-02-10T15:49:44;6.60;99.00
26224;DHT22;14820;48.682;8.890;2023-02-10T15:52:23;6.50;98.80
26224;DHT22;14820;48.682;8.890;2023-02-10T15:54:50;6.40;99.30
26224;DHT22;14820;48.682;8.890;2023-02-10T15:57:17;6.30;99.30
26224;DHT22;14820;48.682;8.890;2023-02-10T15:59:43;6.10;99.10
26224;DHT22;14820;48.682;8.890;2023-02-10T16:02:12;6.00;99.70
26224;DHT22;14820;48.682;8.890;2023-02-10T16:04:39;5.90;99.60
26224;DHT22;14820;48.682;8.890;2023-02-10T16:07:05;5.80;99.80
26224;DHT22;14820;48.682;8.890;2023-02-10T16:09:32;5.70;99.90
26224;DHT22;14820;48.682;8.890;2023-02-10T16:11:59;5.60;99.90
26224;DHT22;14820;48.682;8.890;2023-02-10T16:14:25;5.60;99.90
26224;DHT22;14820;48.682;8.890;2023-02-10T16:16:54;5.50;99.90
26224;DHT22;14820;48.682;8.890;2023-02-10T16:19:22;5.40;99.90
26224;DHT22;14820;48.682;8.890;2023-02-10T16:21:48;5.30;99.90
26224;DHT22;14820;48.682;8.890;2023-02-10T16:24:18;5.20;99.90
26224;DHT22;14820;48.682;8.890;2023-02-10T16:26:46;5.10;99.90
26224;DHT22;14820;48.682;8.890;2023-02-10T16:29:16;5.00;99.90
26224;DHT22;14820;48.682;8.890;2023-02-10T16:31:42;4.90;99.90
26224;DHT22;14820;48.682;8.890;2023-02-10T16:34:09;4.80;99.90
26224;DHT22;14820;48.682;8.890;2023-02-10T16:36:35;4.60;99.90
26224;DHT22;14820;48.682;8.890;2023-02-10T16:39:00;4.50;99.90
26224;DHT22;14820;48.682;8.890;2023-02-10T16:41:26;4.40;99.90
26224;DHT22;14820;48.682;8.890;2023-02-10T16:46:18;4.10;99.90
26224;DHT22;14820;48.682;8.890;2023-02-10T16:48:46;4.00;99.90
26224;DHT22;14820;48.682;8.890;2023-02-10T16:51:12;3.90;99.90
26224;DHT22;14820;48.682;8.890;2023-02-10T16:53:38;3.80;99.90
26224;DHT22;14820;48.682;8.890;2023-02-10T16:56:04;3.70;99.90
26224;DHT22;14820;48.682;8.890;2023-02-10T16:58:30;3.60;99.90
26224;DHT22;14820;48.682;8.890;2023-02-10T17:00:56;3.60;99.90
26224;DHT22;14820;48.682;8.890;2023-02-10T17:03:22;3.50;99.90
26224;DHT22;14820;48.682;8.890;2023-02-10T17:05:48;3.40;99.90
26224;DHT22;14820;48.682;8.890;2023-02-10T17:08:14;3.40;99.90
26224;DHT22;14820;48.682;8.890;2023-02-10T17:10:40;3.40;99.90
26224;DHT22;14820;48.682;8.890;2023-02-10T17:13:08;3.20;99.90
26224;DHT22;14820;48.682;8.890;2023-02-10T17:17:59;3.10;99.90
26224;DHT22;14820;48.682;8.890;2023-02-10T17:20:31;2.80;99.90
26224;DHT22;14820;48.682;8.890;2023-02-10T17:22:58;2.80;99.90
26224;DHT22;14820;48.682;8.890;2023-02-10T17:25:26;2.50;99.90
26224;DHT22;14820;48.682;8.890;2023-02-10T17:27:52;2.40;99.90
26224;DHT22;14820;48.682;8.890;2023-02-10T17:30:21;2.40;99.90
26224;DHT22;14820;48.682;8.890;2023-02-10T17:32:47;2.30;99.90
26224;DHT22;14820;48.682;8.890;2023-02-10T17:35:15;2.20;99.90
26224;DHT22;14820;48.682;8.890;2023-02-10T17:37:42;2.20;99.90
26224;DHT22;14820;48.682;8.890;2023-02-10T17:40:09;2.00;99.90
26224;DHT22;14820;48.682;8.890;2023-02-10T17:42:48;2.00;99.90
26224;DHT22;14820;48.682;8.890;2023-02-10T17:45:14;2.00;99.90
26224;DHT22;14820;48.682;8.890;2023-02-10T17:47:42;2.10;99.90
26224;DHT22;14820;48.682;8.890;2023-02-10T17:50:10;2.00;99.90
26224;DHT22;14820;48.682;8.890;2023-02-10T17:52:35;1.80;99.90
26224;DHT22;14820;48.682;8.890;2023-02-10T17:55:01;1.80;99.90
26224;DHT22;14820;48.682;8.890;2023-02-10T17:57:27;1.80;99.90
26224;DHT22;14820;48.682;8.890;2023-02-10T17:59:52;1.80;99.90
26224;DHT22;14820;48.682;8.890;2023-02-10T18:02:18;1.90;99.90
26224;DHT22;14820;48.682;8.890;2023-02-10T18:04:43;1.80;99.90